sensor_id;sensor_type;location;lat;lon;timestamp;temperature;humidity
77052;SHT30;65980;44.898;8.602;2024-03-08T00:01:01;8.04;78.63
77052;SHT30;65980;44.898;8.602;2024-03-08T00:04:06;8.05;78.63
77052;SHT30;65980;44.898;8.602;2024-03-08T00:07:10;8.11;78.56
77052;SHT30;65980;44.898;8.602;2024-03-08T00:10:14;8.20;78.75
77052;SHT30;65980;44.898;8.602;2024-03-08T00:13:18;8.17;77.90
77052;SHT30;65980;44.898;8.602;2024-03-08T00:16:22;8.15;78.57
77052;SHT30;65980;44.898;8.602;2024-03-08T00:19:28;8.15;78.52
77052;SHT30;65980;44.898;8.602;2024-03-08T00:22:32;8.21;78.27
77052;SHT30;65980;44.898;8.602;2024-03-08T00:25:36;8.18;78.11
77052;SHT30;65980;44.898;8.602;2024-03-08T00:28:40;8.17;78.51
77052;SHT30;65980;44.898;8.602;2024-03-08T00:31:44;8.07;78.45
77052;SHT30;65980;44.898;8.602;2024-03-08T00:34:49;7.65;79.58
77052;SHT30;65980;44.898;8.602;2024-03-08T00:37:56;7.89;79.03
77052;SHT30;65980;44.898;8.602;2024-03-08T00:41:00;7.82;78.62
77052;SHT30;65980;44.898;8.602;2024-03-08T00:44:05;7.80;78.85
77052;SHT30;65980;44.898;8.602;2024-03-08T00:47:10;7.66;79.36
77052;SHT30;65980;44.898;8.602;2024-03-08T00:50:14;7.79;78.39
77052;SHT30;65980;44.898;8.602;2024-03-08T00:53:18;7.54;79.45
77052;SHT30;65980;44.898;8.602;2024-03-08T00:56:22;7.32;79.49
77052;SHT30;65980;44.898;8.602;2024-03-08T00:59:31;7.42;79.40
77052;SHT30;65980;44.898;8.602;2024-03-08T01:02:40;7.49;79.73
77052;SHT30;65980;44.898;8.602;2024-03-08T01:05:47;7.28;79.08
77052;SHT30;65980;44.898;8.602;2024-03-08T01:08:51;7.10;79.98
77052;SHT30;65980;44.898;8.602;2024-03-08T01:11:56;7.22;80.37
77052;SHT30;65980;44.898;8.602;2024-03-08T01:15:01;7.24;80.08
77052;SHT30;65980;44.898;8.602;2024-03-08T01:18:11;6.99;80.77
77052;SHT30;65980;44.898;8.602;2024-03-08T01:21:15;7.13;79.77
77052;SHT30;65980;44.898;8.602;2024-03-08T01:24:19;6.82;81.04
77052;SHT30;65980;44.898;8.602;2024-03-08T01:27:23;6.87;81.13
77052;SHT30;65980;44.898;8.602;2024-03-08T01:30:28;6.94;81.71
77052;SHT30;65980;44.898;8.602;2024-03-08T01:33:32;6.80;81.86
77052;SHT30;65980;44.898;8.602;2024-03-08T01:36:36;7.04;80.25
77052;SHT30;65980;44.898;8.602;2024-03-08T01:39:44;6.99;80.92
77052;SHT30;65980;44.898;8.602;2024-03-08T01:42:48;7.07;80.32
77052;SHT30;65980;44.898;8.602;2024-03-08T01:45:52;6.99;80.78
77052;SHT30;65980;44.898;8.602;2024-03-08T01:48:56;6.94;81.17
77052;SHT30;65980;44.898;8.602;2024-03-08T01:52:00;7.03;81.19
77052;SHT30;65980;44.898;8.602;2024-03-08T01:55:09;7.07;80.71
77052;SHT30;65980;44.898;8.602;2024-03-08T01:58:13;7.04;80.59
77052;SHT30;65980;44.898;8.602;2024-03-08T02:01:20;7.15;80.76
77052;SHT30;65980;44.898;8.602;2024-03-08T02:04:25;7.15;80.14
77052;SHT30;65980;44.898;8.602;2024-03-08T02:07:29;6.97;79.71
77052;SHT30;65980;44.898;8.602;2024-03-08T02:10:34;6.90;80.11
77052;SHT30;65980;44.898;8.602;2024-03-08T02:13:38;6.73;80.75
77052;SHT30;65980;44.898;8.602;2024-03-08T02:16:42;6.52;80.93
77052;SHT30;65980;44.898;8.602;2024-03-08T02:19:46;6.55;81.50
77052;SHT30;65980;44.898;8.602;2024-03-08T02:22:51;6.68;80.41
77052;SHT30;65980;44.898;8.602;2024-03-08T02:25:56;6.44;81.37
77052;SHT30;65980;44.898;8.602;2024-03-08T02:29:00;6.52;81.38
77052;SHT30;65980;44.898;8.602;2024-03-08T02:32:05;6.71;81.06
77052;SHT30;65980;44.898;8.602;2024-03-08T02:35:10;6.62;79.85
77052;SHT30;65980;44.898;8.602;2024-03-08T02:38:15;6.40;80.16
77052;SHT30;65980;44.898;8.602;2024-03-08T02:41:23;6.18;81.29
77052;SHT30;65980;44.898;8.602;2024-03-08T02:44:27;6.35;81.45
77052;SHT30;65980;44.898;8.602;2024-03-08T02:47:32;5.99;82.45
77052;SHT30;65980;44.898;8.602;2024-03-08T02:50:36;6.17;82.41
77052;SHT30;65980;44.898;8.602;2024-03-08T02:53:40;6.34;81.43
77052;SHT30;65980;44.898;8.602;2024-03-08T02:56:44;6.49;81.30
77052;SHT30;65980;44.898;8.602;2024-03-08T02:59:50;6.49;80.61
77052;SHT30;65980;44.898;8.602;2024-03-08T03:02:57;6.49;80.49
77052;SHT30;65980;44.898;8.602;2024-03-08T03:06:01;6.37;80.43
77052;SHT30;65980;44.898;8.602;2024-03-08T03:09:08;6.35;81.08
77052;SHT30;65980;44.898;8.602;2024-03-08T03:12:14;6.42;80.67
77052;SHT30;65980;44.898;8.602;2024-03-08T03:15:18;6.24;80.71
77052;SHT30;65980;44.898;8.602;2024-03-08T03:18:26;6.14;80.58
77052;SHT30;65980;44.898;8.602;2024-03-08T03:21:31;6.07;81.19
77052;SHT30;65980;44.898;8.602;2024-03-08T03:24:38;6.07;81.18
77052;SHT30;65980;44.898;8.602;2024-03-08T03:27:42;6.02;81.62
77052;SHT30;65980;44.898;8.602;2024-03-08T03:30:46;5.40;84.28
77052;SHT30;65980;44.898;8.602;2024-03-08T03:33:50;5.56;83.57
77052;SHT30;65980;44.898;8.602;2024-03-08T03:36:57;5.55;83.88
77052;SHT30;65980;44.898;8.602;2024-03-08T03:40:02;5.62;82.70
77052;SHT30;65980;44.898;8.602;2024-03-08T03:43:06;5.32;84.04
77052;SHT30;65980;44.898;8.602;2024-03-08T03:46:11;5.41;84.22
77052;SHT30;65980;44.898;8.602;2024-03-08T03:49:16;5.55;83.17
77052;SHT30;65980;44.898;8.602;2024-03-08T03:52:20;5.55;83.85
77052;SHT30;65980;44.898;8.602;2024-03-08T03:55:27;5.70;83.85
77052;SHT30;65980;44.898;8.602;2024-03-08T03:58:32;5.86;83.32
77052;SHT30;65980;44.898;8.602;2024-03-08T04:01:41;5.93;82.89
77052;SHT30;65980;44.898;8.602;2024-03-08T04:04:46;5.99;83.18
77052;SHT30;65980;44.898;8.602;2024-03-08T04:07:50;5.96;82.75
77052;SHT30;65980;44.898;8.602;2024-03-08T04:10:55;5.90;81.16
77052;SHT30;65980;44.898;8.602;2024-03-08T04:14:00;5.59;83.05
77052;SHT30;65980;44.898;8.602;2024-03-08T04:17:04;5.70;84.04
77052;SHT30;65980;44.898;8.602;2024-03-08T04:20:08;5.52;83.65
77052;SHT30;65980;44.898;8.602;2024-03-08T04:23:14;5.70;84.03
77052;SHT30;65980;44.898;8.602;2024-03-08T04:26:20;5.93;83.16
77052;SHT30;65980;44.898;8.602;2024-03-08T04:29:24;6.10;82.28
77052;SHT30;65980;44.898;8.602;2024-03-08T04:32:28;6.13;82.02
77052;SHT30;65980;44.898;8.602;2024-03-08T04:35:33;6.13;82.09
77052;SHT30;65980;44.898;8.602;2024-03-08T04:38:37;5.87;82.22
77052;SHT30;65980;44.898;8.602;2024-03-08T04:41:44;5.51;83.59
77052;SHT30;65980;44.898;8.602;2024-03-08T04:44:52;5.68;82.97
77052;SHT30;65980;44.898;8.602;2024-03-08T04:47:57;5.51;83.26
77052;SHT30;65980;44.898;8.602;2024-03-08T04:51:02;5.10;84.60
77052;SHT30;65980;44.898;8.602;2024-03-08T04:54:07;4.93;84.82
77052;SHT30;65980;44.898;8.602;2024-03-08T04:57:11;4.82;85.59
77052;SHT30;65980;44.898;8.602;2024-03-08T05:00:15;4.64;86.31
77052;SHT30;65980;44.898;8.602;2024-03-08T05:03:20;4.79;86.22
77052;SHT30;65980;44.898;8.602;2024-03-08T05:06:27;4.85;84.92
77052;SHT30;65980;44.898;8.602;2024-03-08T05:09:32;4.64;85.92
77052;SHT30;65980;44.898;8.602;2024-03-08T05:12:37;4.41;86.72
77052;SHT30;65980;44.898;8.602;2024-03-08T05:15:47;4.30;87.07
77052;SHT30;65980;44.898;8.602;2024-03-08T05:18:51;4.25;86.80
77052;SHT30;65980;44.898;8.602;2024-03-08T05:21:55;4.40;86.79
77052;SHT30;65980;44.898;8.602;2024-03-08T05:24:59;4.62;85.51
77052;SHT30;65980;44.898;8.602;2024-03-08T05:28:03;4.73;85.13
77052;SHT30;65980;44.898;8.602;2024-03-08T05:31:08;4.68;84.82
77052;SHT30;65980;44.898;8.602;2024-03-08T05:34:21;4.69;85.15
77052;SHT30;65980;44.898;8.602;2024-03-08T05:37:38;4.79;85.33
77052;SHT30;65980;44.898;8.602;2024-03-08T05:40:43;4.96;85.29
77052;SHT30;65980;44.898;8.602;2024-03-08T05:43:56;4.58;85.10
77052;SHT30;65980;44.898;8.602;2024-03-08T05:47:06;5.03;83.74
77052;SHT30;65980;44.898;8.602;2024-03-08T05:50:16;5.03;83.86
77052;SHT30;65980;44.898;8.602;2024-03-08T05:53:20;5.09;83.77
77052;SHT30;65980;44.898;8.602;2024-03-08T05:56:25;5.16;84.17
77052;SHT30;65980;44.898;8.602;2024-03-08T05:59:29;5.07;83.63
77052;SHT30;65980;44.898;8.602;2024-03-08T06:02:33;4.95;84.77
77052;SHT30;65980;44.898;8.602;2024-03-08T06:05:37;5.31;83.64
77052;SHT30;65980;44.898;8.602;2024-03-08T06:08:44;5.56;82.26
77052;SHT30;65980;44.898;8.602;2024-03-08T06:11:49;5.45;81.73
77052;SHT30;65980;44.898;8.602;2024-03-08T06:14:53;5.19;82.53
77052;SHT30;65980;44.898;8.602;2024-03-08T06:17:58;5.37;80.88
77052;SHT30;65980;44.898;8.602;2024-03-08T06:21:03;5.24;81.27
77052;SHT30;65980;44.898;8.602;2024-03-08T06:24:08;5.35;81.46
77052;SHT30;65980;44.898;8.602;2024-03-08T06:27:12;5.51;82.01
77052;SHT30;65980;44.898;8.602;2024-03-08T06:30:16;5.77;80.71
77052;SHT30;65980;44.898;8.602;2024-03-08T06:33:21;5.93;79.38
77052;SHT30;65980;44.898;8.602;2024-03-08T06:36:25;6.03;78.85
77052;SHT30;65980;44.898;8.602;2024-03-08T06:39:29;5.99;78.66
77052;SHT30;65980;44.898;8.602;2024-03-08T06:42:36;5.52;80.53
77052;SHT30;65980;44.898;8.602;2024-03-08T06:45:40;5.54;81.41
77052;SHT30;65980;44.898;8.602;2024-03-08T06:48:44;5.85;80.58
77052;SHT30;65980;44.898;8.602;2024-03-08T06:51:53;6.23;80.26
77052;SHT30;65980;44.898;8.602;2024-03-08T06:54:57;6.55;78.95
77052;SHT30;65980;44.898;8.602;2024-03-08T06:58:02;6.85;78.46
77052;SHT30;65980;44.898;8.602;2024-03-08T07:01:07;6.65;78.68
77052;SHT30;65980;44.898;8.602;2024-03-08T07:04:17;6.83;78.28
77052;SHT30;65980;44.898;8.602;2024-03-08T07:07:21;6.68;77.36
77052;SHT30;65980;44.898;8.602;2024-03-08T07:10:25;6.34;79.35
77052;SHT30;65980;44.898;8.602;2024-03-08T07:13:32;5.86;80.93
77052;SHT30;65980;44.898;8.602;2024-03-08T07:16:39;6.11;80.40
77052;SHT30;65980;44.898;8.602;2024-03-08T07:19:43;6.17;80.03
77052;SHT30;65980;44.898;8.602;2024-03-08T07:22:49;5.90;82.00
77052;SHT30;65980;44.898;8.602;2024-03-08T07:26:02;6.02;81.83
77052;SHT30;65980;44.898;8.602;2024-03-08T07:29:06;6.06;82.50
77052;SHT30;65980;44.898;8.602;2024-03-08T07:32:12;6.21;82.26
77052;SHT30;65980;44.898;8.602;2024-03-08T07:35:25;6.51;81.49
77052;SHT30;65980;44.898;8.602;2024-03-08T07:38:30;6.31;82.00
77052;SHT30;65980;44.898;8.602;2024-03-08T07:41:34;6.25;82.38
77052;SHT30;65980;44.898;8.602;2024-03-08T07:44:40;6.38;83.00
77052;SHT30;65980;44.898;8.602;2024-03-08T07:47:45;6.42;82.80
77052;SHT30;65980;44.898;8.602;2024-03-08T07:50:49;6.34;83.19
77052;SHT30;65980;44.898;8.602;2024-03-08T07:53:54;6.30;83.70
77052;SHT30;65980;44.898;8.602;2024-03-08T07:56:59;6.41;83.07
77052;SHT30;65980;44.898;8.602;2024-03-08T08:00:03;6.86;82.07
77052;SHT30;65980;44.898;8.602;2024-03-08T08:03:13;6.99;80.89
77052;SHT30;65980;44.898;8.602;2024-03-08T08:06:17;6.61;82.82
77052;SHT30;65980;44.898;8.602;2024-03-08T08:09:21;6.76;82.93
77052;SHT30;65980;44.898;8.602;2024-03-08T08:12:38;7.01;83.00
77052;SHT30;65980;44.898;8.602;2024-03-08T08:15:42;6.79;82.78
77052;SHT30;65980;44.898;8.602;2024-03-08T08:18:47;6.58;84.06
77052;SHT30;65980;44.898;8.602;2024-03-08T08:21:52;6.76;83.95
77052;SHT30;65980;44.898;8.602;2024-03-08T08:24:56;6.73;83.69
77052;SHT30;65980;44.898;8.602;2024-03-08T08:28:00;7.30;82.34
77052;SHT30;65980;44.898;8.602;2024-03-08T08:31:04;8.03;80.31
77052;SHT30;65980;44.898;8.602;2024-03-08T08:34:11;8.79;77.31
77052;SHT30;65980;44.898;8.602;2024-03-08T08:37:16;9.43;75.14
77052;SHT30;65980;44.898;8.602;2024-03-08T08:40:22;9.43;74.33
77052;SHT30;65980;44.898;8.602;2024-03-08T08:43:26;9.31;76.59
77052;SHT30;65980;44.898;8.602;2024-03-08T08:46:31;9.75;73.44
77052;SHT30;65980;44.898;8.602;2024-03-08T08:49:35;9.03;76.34
77052;SHT30;65980;44.898;8.602;2024-03-08T08:52:39;8.99;77.40
77052;SHT30;65980;44.898;8.602;2024-03-08T08:55:44;9.41;76.52
77052;SHT30;65980;44.898;8.602;2024-03-08T08:58:50;9.63;74.86
77052;SHT30;65980;44.898;8.602;2024-03-08T09:01:54;9.24;77.28
77052;SHT30;65980;44.898;8.602;2024-03-08T09:04:58;8.69;79.78
77052;SHT30;65980;44.898;8.602;2024-03-08T09:08:02;8.63;81.11
77052;SHT30;65980;44.898;8.602;2024-03-08T09:11:06;8.75;81.38
77052;SHT30;65980;44.898;8.602;2024-03-08T09:14:11;8.90;80.59
77052;SHT30;65980;44.898;8.602;2024-03-08T09:17:15;10.12;77.88
77052;SHT30;65980;44.898;8.602;2024-03-08T09:20:24;10.97;75.62
77052;SHT30;65980;44.898;8.602;2024-03-08T09:23:29;11.86;72.55
77052;SHT30;65980;44.898;8.602;2024-03-08T09:26:34;12.92;68.96
77052;SHT30;65980;44.898;8.602;2024-03-08T09:29:38;13.01;69.54
77052;SHT30;65980;44.898;8.602;2024-03-08T09:32:42;12.73;70.34
77052;SHT30;65980;44.898;8.602;2024-03-08T09:35:47;13.83;66.42
77052;SHT30;65980;44.898;8.602;2024-03-08T09:38:52;13.51;67.01
77052;SHT30;65980;44.898;8.602;2024-03-08T09:41:57;12.63;68.64
77052;SHT30;65980;44.898;8.602;2024-03-08T09:45:02;11.27;73.94
77052;SHT30;65980;44.898;8.602;2024-03-08T09:52:30;10.39;77.95
77052;SHT30;65980;44.898;8.602;2024-03-08T09:55:37;11.31;76.03
77052;SHT30;65980;44.898;8.602;2024-03-08T09:58:42;11.34;75.45
77052;SHT30;65980;44.898;8.602;2024-03-08T10:02:02;11.79;74.38
77052;SHT30;65980;44.898;8.602;2024-03-08T10:05:07;13.54;69.36
77052;SHT30;65980;44.898;8.602;2024-03-08T10:08:17;13.93;67.52
77052;SHT30;65980;44.898;8.602;2024-03-08T10:11:22;13.24;68.96
77052;SHT30;65980;44.898;8.602;2024-03-08T10:14:30;11.25;74.78
77052;SHT30;65980;44.898;8.602;2024-03-08T10:17:35;10.92;76.52
77052;SHT30;65980;44.898;8.602;2024-03-08T10:20:40;10.96;77.22
77052;SHT30;65980;44.898;8.602;2024-03-08T10:23:45;10.81;77.54
77052;SHT30;65980;44.898;8.602;2024-03-08T10:26:52;10.83;77.28
77052;SHT30;65980;44.898;8.602;2024-03-08T10:29:57;10.49;77.93
77052;SHT30;65980;44.898;8.602;2024-03-08T10:33:02;10.49;78.57
77052;SHT30;65980;44.898;8.602;2024-03-08T10:36:09;10.79;77.46
77052;SHT30;65980;44.898;8.602;2024-03-08T10:39:24;11.01;77.62
77052;SHT30;65980;44.898;8.602;2024-03-08T10:42:28;11.32;77.34
77052;SHT30;65980;44.898;8.602;2024-03-08T10:45:39;12.18;75.65
77052;SHT30;65980;44.898;8.602;2024-03-08T10:48:47;13.24;71.00
77052;SHT30;65980;44.898;8.602;2024-03-08T10:51:52;14.06;68.35
77052;SHT30;65980;44.898;8.602;2024-03-08T10:54:56;13.42;69.34
77052;SHT30;65980;44.898;8.602;2024-03-08T10:58:02;14.03;68.17
77052;SHT30;65980;44.898;8.602;2024-03-08T11:01:09;13.77;67.38
77052;SHT30;65980;44.898;8.602;2024-03-08T11:04:22;13.01;70.75
77052;SHT30;65980;44.898;8.602;2024-03-08T11:07:33;12.87;72.06
77052;SHT30;65980;44.898;8.602;2024-03-08T11:10:50;13.73;69.59
77052;SHT30;65980;44.898;8.602;2024-03-08T11:14:00;13.55;69.69
77052;SHT30;65980;44.898;8.602;2024-03-08T11:17:06;12.59;72.43
77052;SHT30;65980;44.898;8.602;2024-03-08T11:20:11;12.79;73.00
77052;SHT30;65980;44.898;8.602;2024-03-08T11:23:22;13.42;70.74
77052;SHT30;65980;44.898;8.602;2024-03-08T11:26:27;14.34;68.75
77052;SHT30;65980;44.898;8.602;2024-03-08T11:33:13;15.70;62.63
77052;SHT30;65980;44.898;8.602;2024-03-08T11:36:20;15.10;64.41
77052;SHT30;65980;44.898;8.602;2024-03-08T11:39:26;15.83;62.74
77052;SHT30;65980;44.898;8.602;2024-03-08T11:42:32;15.70;61.27
77052;SHT30;65980;44.898;8.602;2024-03-08T11:45:42;15.48;64.04
77052;SHT30;65980;44.898;8.602;2024-03-08T11:48:54;15.10;63.59
77052;SHT30;65980;44.898;8.602;2024-03-08T11:52:14;14.14;66.38
77052;SHT30;65980;44.898;8.602;2024-03-08T11:55:19;13.84;67.11
77052;SHT30;65980;44.898;8.602;2024-03-08T11:58:23;13.62;64.82
77052;SHT30;65980;44.898;8.602;2024-03-08T12:01:29;13.04;65.27
77052;SHT30;65980;44.898;8.602;2024-03-08T12:04:33;13.04;65.95
77052;SHT30;65980;44.898;8.602;2024-03-08T12:07:39;13.17;67.51
77052;SHT30;65980;44.898;8.602;2024-03-08T12:10:43;12.48;69.18
77052;SHT30;65980;44.898;8.602;2024-03-08T12:13:48;12.96;67.97
77052;SHT30;65980;44.898;8.602;2024-03-08T12:16:53;13.11;68.65
77052;SHT30;65980;44.898;8.602;2024-03-08T12:19:57;13.25;67.53
77052;SHT30;65980;44.898;8.602;2024-03-08T12:23:14;13.20;67.24
77052;SHT30;65980;44.898;8.602;2024-03-08T12:26:24;12.75;68.60
77052;SHT30;65980;44.898;8.602;2024-03-08T12:29:30;12.75;69.68
77052;SHT30;65980;44.898;8.602;2024-03-08T12:32:37;12.55;71.40
77052;SHT30;65980;44.898;8.602;2024-03-08T12:35:51;12.72;71.22
77052;SHT30;65980;44.898;8.602;2024-03-08T12:38:59;12.32;71.86
77052;SHT30;65980;44.898;8.602;2024-03-08T12:42:06;12.16;71.14
77052;SHT30;65980;44.898;8.602;2024-03-08T12:45:13;12.34;71.75
77052;SHT30;65980;44.898;8.602;2024-03-08T12:48:17;12.41;72.20
77052;SHT30;65980;44.898;8.602;2024-03-08T12:51:22;12.29;72.50
77052;SHT30;65980;44.898;8.602;2024-03-08T12:54:27;12.28;72.58
77052;SHT30;65980;44.898;8.602;2024-03-08T12:57:32;12.38;71.61
77052;SHT30;65980;44.898;8.602;2024-03-08T13:00:37;12.37;71.91
77052;SHT30;65980;44.898;8.602;2024-03-08T13:03:47;12.32;72.18
77052;SHT30;65980;44.898;8.602;2024-03-08T13:06:54;12.42;72.88
77052;SHT30;65980;44.898;8.602;2024-03-08T13:09:59;12.48;73.25
77052;SHT30;65980;44.898;8.602;2024-03-08T13:13:03;12.41;73.34
77052;SHT30;65980;44.898;8.602;2024-03-08T13:16:08;12.16;74.31
77052;SHT30;65980;44.898;8.602;2024-03-08T13:19:12;12.41;73.60
77052;SHT30;65980;44.898;8.602;2024-03-08T13:22:17;12.42;73.98
77052;SHT30;65980;44.898;8.602;2024-03-08T13:25:22;12.48;73.89
77052;SHT30;65980;44.898;8.602;2024-03-08T13:28:29;12.53;74.16
77052;SHT30;65980;44.898;8.602;2024-03-08T13:31:41;12.35;74.01
77052;SHT30;65980;44.898;8.602;2024-03-08T13:34:51;11.83;74.42
77052;SHT30;65980;44.898;8.602;2024-03-08T13:37:56;11.86;74.11
77052;SHT30;65980;44.898;8.602;2024-03-08T13:41:25;11.72;73.58
77052;SHT30;65980;44.898;8.602;2024-03-08T13:44:39;11.35;75.62
77052;SHT30;65980;44.898;8.602;2024-03-08T13:47:44;11.59;74.85
77052;SHT30;65980;44.898;8.602;2024-03-08T13:50:50;11.40;75.49
77052;SHT30;65980;44.898;8.602;2024-03-08T13:53:56;11.56;75.19
77052;SHT30;65980;44.898;8.602;2024-03-08T13:57:02;11.35;76.24
77052;SHT30;65980;44.898;8.602;2024-03-08T14:00:08;11.66;75.29
77052;SHT30;65980;44.898;8.602;2024-03-08T14:03:16;11.93;74.85
77052;SHT30;65980;44.898;8.602;2024-03-08T14:06:20;11.89;74.86
77052;SHT30;65980;44.898;8.602;2024-03-08T14:09:24;12.05;73.90
77052;SHT30;65980;44.898;8.602;2024-03-08T14:12:29;11.76;75.37
77052;SHT30;65980;44.898;8.602;2024-03-08T14:15:34;11.83;76.26
77052;SHT30;65980;44.898;8.602;2024-03-08T14:18:47;11.72;75.16
77052;SHT30;65980;44.898;8.602;2024-03-08T14:21:51;11.80;75.49
77052;SHT30;65980;44.898;8.602;2024-03-08T14:24:57;11.77;75.19
77052;SHT30;65980;44.898;8.602;2024-03-08T14:28:01;11.69;76.06
77052;SHT30;65980;44.898;8.602;2024-03-08T14:31:07;11.82;75.83
77052;SHT30;65980;44.898;8.602;2024-03-08T14:34:17;11.82;74.42
77052;SHT30;65980;44.898;8.602;2024-03-08T14:37:23;11.61;75.01
77052;SHT30;65980;44.898;8.602;2024-03-08T14:40:31;11.39;75.61
77052;SHT30;65980;44.898;8.602;2024-03-08T14:43:36;11.40;75.72
77052;SHT30;65980;44.898;8.602;2024-03-08T14:46:40;11.38;75.73
77052;SHT30;65980;44.898;8.602;2024-03-08T14:49:46;11.31;77.57
77052;SHT30;65980;44.898;8.602;2024-03-08T14:52:52;11.51;77.32
77052;SHT30;65980;44.898;8.602;2024-03-08T14:55:56;11.34;78.01
77052;SHT30;65980;44.898;8.602;2024-03-08T14:59:00;11.48;78.52
77052;SHT30;65980;44.898;8.602;2024-03-08T15:02:05;11.12;79.28
77052;SHT30;65980;44.898;8.602;2024-03-08T15:05:10;11.36;78.76
77052;SHT30;65980;44.898;8.602;2024-03-08T15:08:17;11.45;78.64
77052;SHT30;65980;44.898;8.602;2024-03-08T15:11:26;10.97;80.32
77052;SHT30;65980;44.898;8.602;2024-03-08T15:14:30;11.07;80.09
77052;SHT30;65980;44.898;8.602;2024-03-08T15:17:37;10.94;80.28
77052;SHT30;65980;44.898;8.602;2024-03-08T15:20:44;11.32;79.18
77052;SHT30;65980;44.898;8.602;2024-03-08T15:23:50;11.28;78.35
77052;SHT30;65980;44.898;8.602;2024-03-08T15:26:56;11.22;78.73
77052;SHT30;65980;44.898;8.602;2024-03-08T15:30:01;11.17;79.72
77052;SHT30;65980;44.898;8.602;2024-03-08T15:33:14;11.15;79.20
77052;SHT30;65980;44.898;8.602;2024-03-08T15:36:19;11.25;78.05
77052;SHT30;65980;44.898;8.602;2024-03-08T15:39:25;10.86;79.31
77052;SHT30;65980;44.898;8.602;2024-03-08T15:42:30;10.45;79.23
77052;SHT30;65980;44.898;8.602;2024-03-08T15:45:34;10.45;79.45
77052;SHT30;65980;44.898;8.602;2024-03-08T15:48:40;10.41;79.53
77052;SHT30;65980;44.898;8.602;2024-03-08T15:51:48;10.66;79.54
77052;SHT30;65980;44.898;8.602;2024-03-08T15:54:52;10.49;81.13
77052;SHT30;65980;44.898;8.602;2024-03-08T15:57:57;10.15;82.03
77052;SHT30;65980;44.898;8.602;2024-03-08T16:01:04;10.12;82.96
77052;SHT30;65980;44.898;8.602;2024-03-08T16:04:11;10.38;82.64
77052;SHT30;65980;44.898;8.602;2024-03-08T16:07:15;10.32;82.45
77052;SHT30;65980;44.898;8.602;2024-03-08T16:10:19;10.45;82.08
77052;SHT30;65980;44.898;8.602;2024-03-08T16:13:24;10.30;83.06
77052;SHT30;65980;44.898;8.602;2024-03-08T16:16:28;9.94;83.78
77052;SHT30;65980;44.898;8.602;2024-03-08T16:19:34;9.94;84.67
77052;SHT30;65980;44.898;8.602;2024-03-08T16:22:44;9.95;84.26
77052;SHT30;65980;44.898;8.602;2024-03-08T16:25:49;10.08;83.88
77052;SHT30;65980;44.898;8.602;2024-03-08T16:28:53;9.90;84.11
77052;SHT30;65980;44.898;8.602;2024-03-08T16:32:00;10.18;83.61
77052;SHT30;65980;44.898;8.602;2024-03-08T16:35:04;10.34;82.96
77052;SHT30;65980;44.898;8.602;2024-03-08T16:38:15;10.11;84.71
77052;SHT30;65980;44.898;8.602;2024-03-08T16:41:20;9.66;85.12
77052;SHT30;65980;44.898;8.602;2024-03-08T16:44:25;9.69;85.06
77052;SHT30;65980;44.898;8.602;2024-03-08T16:47:30;9.77;84.98
77052;SHT30;65980;44.898;8.602;2024-03-08T16:50:34;9.84;84.71
77052;SHT30;65980;44.898;8.602;2024-03-08T16:53:39;9.98;83.96
77052;SHT30;65980;44.898;8.602;2024-03-08T16:56:45;9.75;84.92
77052;SHT30;65980;44.898;8.602;2024-03-08T16:59:51;9.63;85.39
77052;SHT30;65980;44.898;8.602;2024-03-08T17:02:55;9.62;85.13
77052;SHT30;65980;44.898;8.602;2024-03-08T17:06:01;9.72;85.23
77052;SHT30;65980;44.898;8.602;2024-03-08T17:09:06;9.66;85.49
77052;SHT30;65980;44.898;8.602;2024-03-08T17:12:16;9.76;85.22
77052;SHT30;65980;44.898;8.602;2024-03-08T17:15:23;9.65;85.75
77052;SHT30;65980;44.898;8.602;2024-03-08T17:18:32;9.49;86.78
77052;SHT30;65980;44.898;8.602;2024-03-08T17:21:37;9.48;86.53
77052;SHT30;65980;44.898;8.602;2024-03-08T17:24:47;9.56;86.33
77052;SHT30;65980;44.898;8.602;2024-03-08T17:27:57;9.75;85.29
77052;SHT30;65980;44.898;8.602;2024-03-08T17:31:02;9.93;84.93
77052;SHT30;65980;44.898;8.602;2024-03-08T17:34:06;9.91;84.95
77052;SHT30;65980;44.898;8.602;2024-03-08T17:37:10;9.65;86.28
77052;SHT30;65980;44.898;8.602;2024-03-08T17:40:28;9.31;87.71
77052;SHT30;65980;44.898;8.602;2024-03-08T17:43:34;9.50;87.39
77052;SHT30;65980;44.898;8.602;2024-03-08T17:46:38;9.52;87.41
77052;SHT30;65980;44.898;8.602;2024-03-08T17:49:42;9.56;87.91
77052;SHT30;65980;44.898;8.602;2024-03-08T17:52:49;9.69;87.01
77052;SHT30;65980;44.898;8.602;2024-03-08T17:55:55;9.58;87.97
77052;SHT30;65980;44.898;8.602;2024-03-08T17:59:00;9.35;88.21
77052;SHT30;65980;44.898;8.602;2024-03-08T18:02:09;9.42;88.32
77052;SHT30;65980;44.898;8.602;2024-03-08T18:05:17;9.35;89.04
77052;SHT30;65980;44.898;8.602;2024-03-08T18:08:22;9.30;88.76
77052;SHT30;65980;44.898;8.602;2024-03-08T18:11:26;9.43;88.85
77052;SHT30;65980;44.898;8.602;2024-03-08T18:14:34;9.32;88.79
77052;SHT30;65980;44.898;8.602;2024-03-08T18:17:38;9.31;89.54
77052;SHT30;65980;44.898;8.602;2024-03-08T18:20:45;9.04;90.24
77052;SHT30;65980;44.898;8.602;2024-03-08T18:23:51;9.11;89.83
77052;SHT30;65980;44.898;8.602;2024-03-08T18:26:59;9.31;89.61
77052;SHT30;65980;44.898;8.602;2024-03-08T18:30:04;9.48;88.72
77052;SHT30;65980;44.898;8.602;2024-03-08T18:33:09;9.38;88.90
77052;SHT30;65980;44.898;8.602;2024-03-08T18:36:18;9.31;88.93
77052;SHT30;65980;44.898;8.602;2024-03-08T18:39:24;9.28;89.10
77052;SHT30;65980;44.898;8.602;2024-03-08T18:42:31;9.38;88.66
77052;SHT30;65980;44.898;8.602;2024-03-08T18:45:36;9.32;88.64
77052;SHT30;65980;44.898;8.602;2024-03-08T18:48:41;9.04;89.68
77052;SHT30;65980;44.898;8.602;2024-03-08T18:51:48;9.14;89.83
77052;SHT30;65980;44.898;8.602;2024-03-08T18:54:58;9.00;89.91
77052;SHT30;65980;44.898;8.602;2024-03-08T18:58:05;9.01;89.65
77052;SHT30;65980;44.898;8.602;2024-03-08T19:01:09;8.97;89.95
77052;SHT30;65980;44.898;8.602;2024-03-08T19:04:13;8.86;90.20
77052;SHT30;65980;44.898;8.602;2024-03-08T19:07:18;8.97;89.24
77052;SHT30;65980;44.898;8.602;2024-03-08T19:10:26;9.00;89.18
77052;SHT30;65980;44.898;8.602;2024-03-08T19:13:30;8.86;89.60
77052;SHT30;65980;44.898;8.602;2024-03-08T19:16:35;8.75;90.01
77052;SHT30;65980;44.898;8.602;2024-03-08T19:19:45;8.58;90.88
77052;SHT30;65980;44.898;8.602;2024-03-08T19:22:56;8.76;90.42
77052;SHT30;65980;44.898;8.602;2024-03-08T19:26:08;8.73;90.32
77052;SHT30;65980;44.898;8.602;2024-03-08T19:29:19;8.76;89.64
77052;SHT30;65980;44.898;8.602;2024-03-08T19:32:35;8.70;90.00
77052;SHT30;65980;44.898;8.602;2024-03-08T19:35:41;8.60;90.06
77052;SHT30;65980;44.898;8.602;2024-03-08T19:38:53;8.70;90.16
77052;SHT30;65980;44.898;8.602;2024-03-08T19:42:05;8.58;90.44
77052;SHT30;65980;44.898;8.602;2024-03-08T19:45:12;8.63;90.10
77052;SHT30;65980;44.898;8.602;2024-03-08T19:48:18;8.62;90.32
77052;SHT30;65980;44.898;8.602;2024-03-08T19:51:46;8.59;90.18
77052;SHT30;65980;44.898;8.602;2024-03-08T19:55:03;8.67;89.90